Time;durP1;ratioP1;P1;durP2;ratioP2;P2;SDS_P1;SDS_P2;PMS_P1;PMS_P2;Temp;Humidity;BMP_temperature;BMP_pressure;BME280_temperature;BME280_humidity;BME280_pressure;Samples;Min_cycle;Max_cycle;Signal;HPM_P1;HPM_P2
2022/07/27 00:00:23;;;;;;;4.40;2.03;;;;;;;18.42;100.00;96155.47;5019921;28;20490;-75
2022/07/27 00:02:50;;;;;;;9.00;2.45;;;;;;;18.35;100.00;96168.81;5049611;28;20033;-76
2022/07/27 00:05:16;;;;;;;6.82;2.58;;;;;;;18.33;100.00;96162.84;5057367;28;20041;-75
2022/07/27 00:07:41;;;;;;;6.75;2.75;;;;;;;18.21;100.00;96162.69;5054384;28;20041;-75
2022/07/27 00:10:07;;;;;;;5.28;2.20;;;;;;;18.23;100.00;96159.81;5061254;28;20059;-74
2022/07/27 00:12:33;;;;;;;4.65;1.90;;;;;;;18.13;100.00;96155.75;5046574;28;20451;-75
2022/07/27 00:14:59;;;;;;;5.28;1.75;;;;;;;18.07;100.00;96156.56;5044119;28;20213;-73
2022/07/27 00:17:26;;;;;;;2.60;1.60;;;;;;;18.09;100.00;96157.19;5040905;28;20478;-75
2022/07/27 00:19:51;;;;;;;6.97;1.85;;;;;;;18.01;100.00;96153.94;5038468;28;20028;-75
2022/07/27 00:22:17;;;;;;;4.45;1.80;;;;;;;18.12;100.00;96151.44;5049266;28;20040;-75
2022/07/27 00:24:43;;;;;;;5.45;1.95;;;;;;;18.05;100.00;96150.66;5049143;28;20134;-75
2022/07/27 00:27:09;;;;;;;4.15;1.40;;;;;;;18.00;100.00;96158.41;5049330;28;20478;-74
2022/07/27 00:29:35;;;;;;;3.55;1.67;;;;;;;17.79;100.00;96161.34;5012964;28;20091;-75
2022/07/27 00:32:01;;;;;;;4.85;1.80;;;;;;;17.48;100.00;96152.09;5031027;28;20041;-75
2022/07/27 00:34:27;;;;;;;4.10;2.00;;;;;;;17.23;100.00;96151.06;5035332;28;20477;-74
2022/07/27 00:36:52;;;;;;;3.03;1.85;;;;;;;17.18;100.00;96157.81;5029654;28;20032;-75
2022/07/27 00:39:18;;;;;;;4.18;1.92;;;;;;;17.30;100.00;96151.88;5012984;28;20033;-74
2022/07/27 00:41:45;;;;;;;5.35;2.17;;;;;;;17.34;100.00;96161.09;5048804;28;20044;-75
2022/07/27 00:44:11;;;;;;;3.28;1.80;;;;;;;17.35;100.00;96158.22;5028571;28;20033;-75
2022/07/27 00:46:37;;;;;;;4.32;2.05;;;;;;;17.41;100.00;96145.97;5047824;28;20047;-75
2022/07/27 00:49:03;;;;;;;4.68;1.90;;;;;;;17.39;100.00;96153.31;5024503;28;20370;-75
2022/07/27 00:51:28;;;;;;;5.63;2.72;;;;;;;17.10;100.00;96147.38;5034115;28;20127;-75
2022/07/27 00:53:54;;;;;;;4.28;2.20;;;;;;;17.09;100.00;96142.25;5016333;28;20017;-75
2022/07/27 00:56:21;;;;;;;5.88;2.80;;;;;;;17.19;100.00;96142.69;5033402;28;20067;-75
2022/07/27 00:58:50;;;;;;;5.32;2.25;;;;;;;17.37;100.00;96140.25;5010009;28;20037;-75
2022/07/27 01:01:17;;;;;;;5.35;1.83;;;;;;;17.37;100.00;96134.09;5023219;28;20139;-75
2022/07/27 01:03:45;;;;;;;5.63;2.70;;;;;;;17.37;100.00;96139.41;5045829;28;20052;-75
2022/07/27 01:06:11;;;;;;;4.90;2.40;;;;;;;17.34;100.00;96126.56;5053035;28;20025;-75
2022/07/27 01:08:37;;;;;;;10.68;2.60;;;;;;;17.33;100.00;96127.56;5019179;28;20059;-73
2022/07/27 01:11:03;;;;;;;5.30;2.25;;;;;;;17.36;100.00;96125.31;5034467;28;20036;-75
2022/07/27 01:13:29;;;;;;;4.93;2.10;;;;;;;17.33;100.00;96124.91;5003582;28;20029;-74
2022/07/27 01:15:55;;;;;;;4.78;1.90;;;;;;;17.32;100.00;96128.59;5049591;28;20052;-75
2022/07/27 01:18:30;;;;;;;4.05;1.77;;;;;;;17.34;100.00;96127.38;5032713;28;20052;-75
2022/07/27 01:20:57;;;;;;;2.92;1.70;;;;;;;17.19;100.00;96132.03;5030778;28;20029;-75
2022/07/27 01:23:25;;;;;;;6.13;2.00;;;;;;;17.25;100.00;96135.75;5027557;28;20025;-75
2022/07/27 01:25:50;;;;;;;8.73;1.90;;;;;;;17.18;100.00;96130.41;5031419;28;20035;-75
2022/07/27 01:28:16;;;;;;;5.20;1.80;;;;;;;17.18;100.00;96130.41;5009922;28;20636;-75
2022/07/27 01:30:42;;;;;;;6.22;1.58;;;;;;;17.27;100.00;96137.19;5028493;28;20037;-74
2022/07/27 01:33:09;;;;;;;5.05;2.03;;;;;;;17.28;100.00;96133.50;5045118;28;20052;-74
2022/07/27 01:35:36;;;;;;;3.70;1.95;;;;;;;17.21;100.00;96132.66;5029925;28;20045;-75
2022/07/27 01:38:03;;;;;;;4.47;1.95;;;;;;;17.19;100.00;96127.53;5052086;28;20418;-75
2022/07/27 01:40:29;;;;;;;5.32;2.58;;;;;;;17.22;100.00;96121.00;5016049;28;20044;-75
2022/07/27 01:42:55;;;;;;;3.97;2.08;;;;;;;17.17;100.00;96121.63;5031002;28;20395;-76
2022/07/27 01:45:21;;;;;;;5.05;2.20;;;;;;;17.10;100.00;96118.16;5046662;28;20054;-75
2022/07/27 01:47:47;;;;;;;4.57;2.00;;;;;;;17.08;100.00;96117.53;5057193;28;20076;-75
2022/07/27 01:50:13;;;;;;;5.95;2.13;;;;;;;17.04;100.00;96120.81;5052476;28;20063;-75
2022/07/27 01:52:38;;;;;;;5.50;1.92;;;;;;;16.99;100.00;96107.28;5049971;28;20056;-75
2022/07/27 01:55:09;;;;;;;3.03;1.73;;;;;;;17.04;100.00;96108.34;5032909;28;20061;-74
2022/07/27 01:57:36;;;;;;;3.63;1.98;;;;;;;17.06;100.00;96105.47;5045438;28;20033;-75
2022/07/27 02:00:04;;;;;;;5.03;1.98;;;;;;;17.07;100.00;96099.97;5014978;28;20065;-75
2022/07/27 02:02:38;;;;;;;3.88;2.03;;;;;;;17.03;100.00;96089.91;5038623;28;20063;-75
2022/07/27 02:05:04;;;;;;;6.50;2.38;;;;;;;16.96;100.00;96084.59;5051859;28;20052;-75
2022/07/27 02:07:30;;;;;;;5.28;2.22;;;;;;;16.89;100.00;96078.47;5056542;28;20110;-75
2022/07/27 02:09:55;;;;;;;3.15;1.83;;;;;;;16.93;100.00;96080.53;5054080;28;20474;-75
2022/07/27 02:12:36;;;;;;;6.47;1.90;;;;;;;16.85;100.00;96079.91;5053829;28;20389;-75
2022/07/27 02:15:18;;;;;;;3.72;2.00;;;;;;;16.79;100.00;96083.34;5055399;28;20044;-75
2022/07/27 02:17:44;;;;;;;3.65;2.17;;;;;;;16.85;100.00;96077.25;5027231;28;20727;-75
2022/07/27 02:20:11;;;;;;;4.00;1.95;;;;;;;16.85;100.00;96079.91;5032740;28;20052;-75
2022/07/27 02:22:37;;;;;;;3.97;2.30;;;;;;;16.78;100.00;96087.03;5041541;28;20021;-75
2022/07/27 02:25:04;;;;;;;3.88;1.90;;;;;;;16.47;100.00;96091.84;5041517;28;20047;-75
2022/07/27 02:27:30;;;;;;;4.82;2.30;;;;;;;16.10;100.00;96094.97;5045723;28;20138;-75
2022/07/27 02:29:56;;;;;;;6.28;1.90;;;;;;;16.37;100.00;96090.56;5029608;28;20494;-75
2022/07/27 02:32:22;;;;;;;4.95;1.88;;;;;;;16.44;100.00;96092.22;5014688;28;20076;-75
2022/07/27 02:34:49;;;;;;;8.95;6.05;;;;;;;16.38;100.00;96100.16;5050515;28;20044;-73
2022/07/27 02:37:14;;;;;;;13.27;10.32;;;;;;;16.44;100.00;96091.41;5048588;28;20028;-75
2022/07/27 02:39:41;;;;;;;7.38;4.32;;;;;;;16.50;100.00;96095.94;5030302;28;20371;-75
2022/07/27 02:42:06;;;;;;;7.68;2.10;;;;;;;16.51;100.00;96097.56;5028986;28;20025;-75
2022/07/27 02:44:32;;;;;;;3.50;2.20;;;;;;;16.55;100.00;96097.97;5047472;28;20029;-75
2022/07/27 02:46:58;;;;;;;2.78;1.90;;;;;;;16.60;100.00;96101.69;5048621;28;20064;-74
2022/07/27 02:49:23;;;;;;;5.68;2.00;;;;;;;16.64;100.00;96094.94;5008485;28;20048;-75
2022/07/27 02:51:52;;;;;;;5.70;1.85;;;;;;;16.57;100.00;96096.75;5046460;28;20033;-75
2022/07/27 02:54:23;;;;;;;5.80;2.25;;;;;;;16.47;100.00;96096.31;5024481;28;20386;-75
2022/07/27 02:56:51;;;;;;;3.72;2.03;;;;;;;16.18;100.00;96098.25;5043814;28;20456;-74
2022/07/27 02:59:18;;;;;;;4.55;2.03;;;;;;;16.21;100.00;96092.53;5033017;28;20029;-75
2022/07/27 03:01:44;;;;;;;6.38;2.35;;;;;;;16.25;100.00;96093.78;5024392;28;20037;-75
2022/07/27 03:04:10;;;;;;;5.28;2.55;;;;;;;16.36;100.00;96091.56;5043730;28;20036;-75
2022/07/27 03:06:36;;;;;;;4.35;2.42;;;;;;;16.30;100.00;96098.50;5031506;28;20090;-74
2022/07/27 03:09:03;;;;;;;4.72;2.47;;;;;;;16.23;100.00;96092.34;5042152;28;20422;-74
2022/07/27 03:11:28;;;;;;;4.10;2.33;;;;;;;16.11;100.00;96092.09;5027223;28;20094;-75
2022/07/27 03:13:54;;;;;;;16.50;11.18;;;;;;;16.17;100.00;96101.94;5034683;28;20055;-74
2022/07/27 03:16:20;;;;;;;6.65;4.20;;;;;;;16.22;100.00;96104.78;5049861;28;20115;-75
2022/07/27 03:18:46;;;;;;;4.30;2.47;;;;;;;16.11;100.00;96115.97;5045623;28;20075;-75
2022/07/27 03:21:12;;;;;;;3.50;1.85;;;;;;;16.12;100.00;96119.44;5028070;28;20538;-75
2022/07/27 03:23:38;;;;;;;4.55;2.33;;;;;;;15.90;100.00;96116.88;5028332;28;20025;-75
2022/07/27 03:26:04;;;;;;;5.05;2.20;;;;;;;15.75;100.00;96124.13;5044248;28;20035;-75
2022/07/27 03:28:30;;;;;;;5.37;2.57;;;;;;;15.67;100.00;96117.16;5045160;28;20048;-75
2022/07/27 03:30:56;;;;;;;6.55;2.47;;;;;;;15.55;100.00;96123.94;5048723;28;20041;-75
2022/07/27 03:33:22;;;;;;;4.55;2.40;;;;;;;15.68;100.00;96126.72;5045039;28;20043;-75
2022/07/27 03:35:48;;;;;;;5.47;2.75;;;;;;;15.82;100.00;96119.69;5045441;28;20041;-75
2022/07/27 03:38:14;;;;;;;15.57;10.23;;;;;;;15.85;100.00;96118.47;5011194;28;20033;-74
2022/07/27 03:40:40;;;;;;;4.93;3.07;;;;;;;15.90;100.00;96122.19;5025611;28;20037;-75
2022/07/27 03:43:06;;;;;;;4.57;2.65;;;;;;;15.81;100.00;96115.41;5036588;28;20033;-75
2022/07/27 03:45:33;;;;;;;6.22;3.17;;;;;;;15.79;100.00;96114.75;5039597;28;20029;-73
2022/07/27 03:47:59;;;;;;;5.43;2.58;;;;;;;15.92;100.00;96114.03;5043404;28;20029;-75
2022/07/27 03:50:25;;;;;;;7.30;2.67;;;;;;;16.02;100.00;96103.88;5050382;28;20138;-75
2022/07/27 03:52:51;;;;;;;6.37;2.60;;;;;;;16.04;100.00;96112.47;5038009;28;20040;-75
2022/07/27 03:55:18;;;;;;;3.85;2.25;;;;;;;16.10;100.00;96106.38;5029554;28;20071;-74
2022/07/27 03:57:43;;;;;;;4.97;2.65;;;;;;;16.12;100.00;96103.53;5048010;28;20032;-75
2022/07/27 04:00:13;;;;;;;5.43;2.40;;;;;;;15.99;100.00;96098.97;5010699;28;20089;-75
2022/07/27 04:02:39;;;;;;;8.02;5.28;;;;;;;16.01;100.00;96102.25;5044514;28;20036;-75
2022/07/27 04:05:06;;;;;;;13.98;10.15;;;;;;;16.05;100.00;96103.50;5011072;28;20029;-75
2022/07/27 04:07:31;;;;;;;8.77;5.90;;;;;;;16.07;100.00;96098.81;5044474;28;20111;-74
2022/07/27 04:09:57;;;;;;;5.43;2.80;;;;;;;15.98;100.00;96102.63;5044665;28;20104;-74
2022/07/27 04:12:23;;;;;;;4.93;2.30;;;;;;;16.11;100.00;96107.19;5046716;28;20056;-73
2022/07/27 04:14:48;;;;;;;4.13;1.88;;;;;;;16.10;100.00;96108.22;5026486;28;20087;-75
2022/07/27 04:17:14;;;;;;;4.70;2.30;;;;;;;16.07;100.00;96109.44;5043239;28;20697;-75
2022/07/27 04:19:40;;;;;;;4.60;2.15;;;;;;;16.17;100.00;96101.94;5043581;28;20036;-74
2022/07/27 04:22:06;;;;;;;3.72;2.13;;;;;;;16.37;100.00;96103.84;5038945;28;20475;-72
2022/07/27 04:24:32;;;;;;;4.30;2.00;;;;;;;16.94;100.00;96105.25;5043627;28;20375;-74
2022/07/27 04:26:57;;;;;;;4.80;2.20;;;;;;;16.86;100.00;96105.44;5033826;28;20094;-76
2022/07/27 04:29:23;;;;;;;9.45;2.75;;;;;;;16.60;100.00;96107.00;5033243;28;20147;-75
2022/07/27 04:31:48;;;;;;;4.95;2.17;;;;;;;16.58;100.00;96116.16;5039526;28;20044;-75
2022/07/27 04:34:14;;;;;;;3.33;1.90;;;;;;;16.42;100.00;96119.97;5051549;28;20029;-75
2022/07/27 04:36:40;;;;;;;4.20;2.20;;;;;;;16.15;100.00;96121.69;5044695;28;20569;-75
2022/07/27 04:39:06;;;;;;;4.32;2.50;;;;;;;16.15;100.00;96114.56;5037733;28;20033;-76
2022/07/27 04:41:31;;;;;;;6.93;2.63;;;;;;;16.30;100.00;96122.41;5046652;28;20128;-75
2022/07/27 04:43:57;;;;;;;4.22;2.50;;;;;;;16.29;100.00;96125.22;5044489;28;20041;-76
2022/07/27 04:46:23;;;;;;;6.55;2.90;;;;;;;16.20;100.00;96122.75;5052349;28;20052;-76
2022/07/27 04:48:49;;;;;;;4.45;2.35;;;;;;;16.32;100.00;96124.84;5042967;28;20045;-75
2022/07/27 04:51:16;;;;;;;4.90;2.40;;;;;;;16.25;100.00;96124.81;5035910;28;20032;-75
2022/07/27 04:53:41;;;;;;;5.63;2.50;;;;;;;16.30;100.00;96126.84;5029044;28;20029;-75
2022/07/27 04:56:08;;;;;;;6.20;2.72;;;;;;;16.23;100.00;96132.13;5048826;28;20033;-76
2022/07/27 04:58:35;;;;;;;5.50;2.42;;;;;;;16.17;100.00;96131.09;5045879;28;20033;-74
2022/07/27 05:01:01;;;;;;;5.32;2.63;;;;;;;16.22;100.00;96135.81;5032009;28;20127;-76
2022/07/27 05:03:27;;;;;;;4.70;2.40;;;;;;;16.12;100.00;96130.88;5010064;28;20729;-75
2022/07/27 05:05:52;;;;;;;10.13;8.27;;;;;;;16.30;100.00;96137.47;5053867;28;20041;-76
2022/07/27 05:08:18;;;;;;;12.57;9.10;;;;;;;16.39;100.00;96136.28;5042410;28;20068;-76
2022/07/27 05:10:45;;;;;;;12.32;6.22;;;;;;;16.31;100.00;96141.78;5045379;28;20037;-75
2022/07/27 05:13:11;;;;;;;5.20;3.15;;;;;;;16.52;100.00;96139.00;5049264;28;20029;-76
2022/07/27 05:15:38;;;;;;;3.83;2.35;;;;;;;16.38;100.00;96155.91;5041918;28;20040;-74
2022/07/27 05:18:04;;;;;;;5.63;2.33;;;;;;;16.61;100.00;96148.44;5053925;28;20033;-74
2022/07/27 05:20:30;;;;;;;7.35;2.80;;;;;;;16.69;100.00;96148.25;5028829;28;20532;-74
2022/07/27 05:22:56;;;;;;;4.50;2.50;;;;;;;16.53;100.00;96153.09;5053263;28;20266;-75
2022/07/27 05:25:24;;;;;;;6.22;2.78;;;;;;;16.65;100.00;96157.63;5049646;28;20101;-75
2022/07/27 05:27:51;;;;;;;5.80;2.53;;;;;;;16.94;100.00;96161.84;5053970;28;20037;-76
2022/07/27 05:30:18;;;;;;;6.20;2.97;;;;;;;17.03;100.00;96165.13;5054421;28;20029;-75
2022/07/27 05:32:44;;;;;;;4.85;2.80;;;;;;;16.92;100.00;96174.50;5031035;28;20158;-75
2022/07/27 05:35:10;;;;;;;4.50;2.65;;;;;;;16.87;100.00;96173.47;5047510;28;20037;-75
2022/07/27 05:37:36;;;;;;;9.23;5.35;;;;;;;16.73;100.00;96184.03;5028040;28;21018;-75
2022/07/27 05:40:03;;;;;;;12.82;7.25;;;;;;;16.58;100.00;96179.88;5028410;28;20036;-75
2022/07/27 05:42:29;;;;;;;7.95;3.28;;;;;;;16.60;100.00;96178.66;5043834;28;20056;-74
2022/07/27 05:44:55;;;;;;;4.90;2.58;;;;;;;16.34;100.00;96186.50;5048160;28;20033;-76
2022/07/27 05:47:21;;;;;;;5.65;3.17;;;;;;;16.16;100.00;96190.50;5022669;28;20489;-76
2022/07/27 05:49:47;;;;;;;4.28;2.65;;;;;;;16.43;100.00;96193.28;5052234;28;20166;-75
2022/07/27 05:52:13;;;;;;;4.50;2.70;;;;;;;16.70;100.00;96189.75;5047294;28;20513;-74
2022/07/27 05:54:39;;;;;;;5.10;3.20;;;;;;;16.66;100.00;96191.13;5052270;28;20107;-75
2022/07/27 05:57:04;;;;;;;6.45;3.40;;;;;;;16.30;100.00;96191.41;5043696;28;20043;-74
2022/07/27 05:59:31;;;;;;;6.22;3.30;;;;;;;16.57;100.00;96192.34;5051438;28;20033;-75
2022/07/27 06:01:58;;;;;;;5.47;3.22;;;;;;;16.95;100.00;96190.03;5048849;28;20114;-76
2022/07/27 06:04:24;;;;;;;7.97;3.35;;;;;;;16.82;100.00;96200.63;5058794;28;20028;-75
2022/07/27 06:09:35;;;;;;;5.53;3.53;;;;;;;16.95;100.00;96190.03;5048576;28;20545;-75
2022/07/27 06:12:00;;;;;;;5.30;3.10;;;;;;;17.11;100.00;96193.38;5011888;28;20068;-75
2022/07/27 06:14:26;;;;;;;7.97;3.75;;;;;;;17.22;100.00;96195.41;5042144;28;20031;-75
2022/07/27 06:16:52;;;;;;;7.07;3.38;;;;;;;17.13;100.00;96200.09;5050962;28;20485;-75
2022/07/27 06:19:18;;;;;;;6.70;3.50;;;;;;;17.00;100.00;96197.44;5026286;28;20688;-75
2022/07/27 06:21:43;;;;;;;5.07;2.85;;;;;;;17.55;100.00;96200.78;5029207;28;20026;-75
2022/07/27 06:24:10;;;;;;;7.03;3.55;;;;;;;17.62;100.00;96193.63;5044466;28;20459;-76
2022/07/27 06:26:36;;;;;;;21.52;15.98;;;;;;;17.69;100.00;96198.94;5009645;28;20406;-74
2022/07/27 06:29:03;;;;;;;9.60;5.97;;;;;;;17.63;100.00;96197.91;5047595;28;20078;-76
2022/07/27 06:31:29;;;;;;;4.72;3.20;;;;;;;17.68;100.00;96198.13;5040419;28;20542;-75
2022/07/27 06:33:56;;;;;;;7.95;2.95;;;;;;;17.92;100.00;96200.41;5032885;28;20061;-75
2022/07/27 06:36:21;;;;;;;4.95;3.33;;;;;;;17.91;100.00;96199.59;5021013;28;20041;-75
2022/07/27 06:38:48;;;;;;;4.95;2.70;;;;;;;18.23;100.00;96202.41;5005672;28;20128;-75
2022/07/27 06:41:14;;;;;;;8.88;3.65;;;;;;;18.27;100.00;96199.09;5046059;28;20033;-75
2022/07/27 06:43:40;;;;;;;7.70;4.03;;;;;;;18.02;100.00;96195.50;5033143;28;20085;-76
2022/07/27 06:46:11;;;;;;;6.43;3.47;;;;;;;18.36;100.00;96194.38;5039166;28;20028;-73
2022/07/27 06:48:38;;;;;;;5.15;3.75;;;;;;;18.46;100.00;96186.78;5045990;28;20036;-76
2022/07/27 06:51:04;;;;;;;6.88;3.70;;;;;;;18.65;100.00;96178.94;5041689;28;20120;-74
2022/07/27 06:53:29;;;;;;;6.38;3.70;;;;;;;18.81;100.00;96178.47;5061657;28;20129;-74
2022/07/27 06:55:57;;;;;;;6.68;3.78;;;;;;;18.95;100.00;96184.59;5046451;28;20530;-76
2022/07/27 06:58:22;;;;;;;6.75;3.40;;;;;;;18.91;100.00;96186.81;5056124;28;20055;-76
2022/07/27 07:00:48;;;;;;;5.82;4.30;;;;;;;18.66;100.00;96186.72;5025509;28;20462;-75
2022/07/27 07:03:14;;;;;;;8.05;4.65;;;;;;;18.72;100.00;96185.09;5023159;28;20491;-75
2022/07/27 07:05:45;;;;;;;7.53;4.88;;;;;;;18.78;100.00;96194.91;5045427;28;20041;-75
2022/07/27 07:08:12;;;;;;;9.45;4.18;;;;;;;18.83;100.00;96187.91;5036506;28;20036;-75
2022/07/27 07:10:43;;;;;;;7.32;4.10;;;;;;;18.73;100.00;96192.03;5023960;28;20036;-76
2022/07/27 07:13:09;;;;;;;5.68;3.25;;;;;;;19.35;100.00;96192.31;5034127;28;20558;-75
2022/07/27 07:15:36;;;;;;;5.70;3.67;;;;;;;19.27;100.00;96190.72;5036508;28;20024;-74
2022/07/27 07:18:03;;;;;;;6.53;3.92;;;;;;;19.81;100.00;96178.66;5015397;28;20528;-76
2022/07/27 07:20:30;;;;;;;5.78;4.03;;;;;;;20.54;99.01;96177.97;5054931;28;20045;-74
2022/07/27 07:22:57;;;;;;;5.90;4.18;;;;;;;20.77;94.35;96179.97;5045935;28;20029;-75
2022/07/27 07:25:22;;;;;;;7.68;4.28;;;;;;;20.15;98.63;96181.84;5037830;28;20029;-74
2022/07/27 07:27:49;;;;;;;8.25;4.35;;;;;;;20.40;97.02;96184.47;5029266;28;20106;-76
2022/07/27 07:30:15;;;;;;;8.13;4.00;;;;;;;20.98;94.01;96172.50;5034051;28;20021;-75
2022/07/27 07:32:40;;;;;;;6.97;4.22;;;;;;;21.14;91.08;96172.69;5026761;28;20091;-76
2022/07/27 07:35:07;;;;;;;9.65;7.30;;;;;;;22.58;82.55;96171.56;5048471;28;20024;-74
2022/07/27 07:37:32;;;;;;;8.20;4.47;;;;;;;22.85;77.43;96161.13;5041218;28;20052;-76
2022/07/27 07:39:58;;;;;;;5.45;3.38;;;;;;;23.73;68.76;96154.41;5039958;28;20033;-76
2022/07/27 07:42:25;;;;;;;7.32;3.47;;;;;;;23.69;69.13;96157.84;5010928;28;20026;-75
2022/07/27 07:44:50;;;;;;;7.47;4.35;;;;;;;22.08;78.85;96172.88;5021720;28;20033;-76
2022/07/27 07:47:16;;;;;;;8.07;3.97;;;;;;;23.95;69.38;96157.19;5026827;28;20072;-75
2022/07/27 07:49:42;;;;;;;7.90;3.83;;;;;;;23.90;67.90;96162.47;5013449;28;20081;-74
2022/07/27 07:52:07;;;;;;;6.95;4.07;;;;;;;23.00;72.00;96169.50;5044886;28;20032;-74
2022/07/27 07:54:33;;;;;;;6.13;3.47;;;;;;;21.97;78.28;96178.25;5020211;28;20029;-75
2022/07/27 07:56:59;;;;;;;9.52;3.88;;;;;;;22.22;78.66;96175.34;5049616;28;20486;-75
2022/07/27 07:59:25;;;;;;;7.72;3.80;;;;;;;22.08;75.55;96178.22;5032195;28;20037;-74
2022/07/27 08:01:51;;;;;;;7.22;3.72;;;;;;;22.38;75.91;96173.81;5022186;28;20020;-75
2022/07/27 08:04:17;;;;;;;6.28;3.42;;;;;;;22.87;69.97;96166.22;5012002;28;20124;-75
2022/07/27 08:06:43;;;;;;;7.13;4.07;;;;;;;22.46;75.78;96168.09;5048784;28;20084;-74
2022/07/27 08:09:08;;;;;;;4.93;3.67;;;;;;;23.27;71.50;96167.06;5024595;28;20029;-75
2022/07/27 08:11:34;;;;;;;7.50;3.92;;;;;;;23.91;67.30;96166.81;5026746;28;20024;-75
2022/07/27 08:14:00;;;;;;;6.80;3.55;;;;;;;23.45;67.80;96168.69;5038246;28;20033;-75
2022/07/27 08:16:26;;;;;;;6.40;3.28;;;;;;;23.88;68.52;96169.16;5047363;28;20043;-75
2022/07/27 08:18:52;;;;;;;6.95;3.80;;;;;;;23.37;67.65;96173.63;5044839;28;20036;-75
2022/07/27 08:21:18;;;;;;;5.88;4.13;;;;;;;24.18;65.28;96171.50;5058661;28;20033;-75
2022/07/27 08:23:43;;;;;;;7.15;3.67;;;;;;;24.57;62.75;96166.94;5032119;28;20102;-76
2022/07/27 08:26:10;;;;;;;6.35;3.20;;;;;;;24.47;64.62;96177.56;5021613;28;20076;-75
2022/07/27 08:28:36;;;;;;;5.57;3.28;;;;;;;24.81;61.11;96172.88;5025724;28;20106;-76
2022/07/27 08:31:01;;;;;;;4.63;3.30;;;;;;;24.10;66.43;96172.69;5033306;28;20040;-76
2022/07/27 08:33:27;;;;;;;6.82;3.63;;;;;;;24.18;62.88;96166.94;5043891;28;20072;-74
2022/07/27 08:35:53;;;;;;;6.18;3.38;;;;;;;25.07;61.57;96173.16;5012201;28;20047;-76
2022/07/27 08:38:18;;;;;;;7.30;3.72;;;;;;;24.68;64.59;96171.41;5048057;28;20045;-76
2022/07/27 08:40:46;;;;;;;5.30;3.50;;;;;;;24.28;62.96;96179.69;5044903;28;20053;-74
2022/07/27 08:43:18;;;;;;;5.13;3.63;;;;;;;24.38;60.58;96179.84;5050929;28;20033;-76
2022/07/27 08:45:51;;;;;;;5.30;3.17;;;;;;;24.91;60.17;96175.69;5036965;28;20036;-76
2022/07/27 08:48:16;;;;;;;7.88;4.05;;;;;;;24.90;58.53;96170.56;5027404;28;20439;-76
2022/07/27 08:50:42;;;;;;;5.30;3.53;;;;;;;25.79;56.45;96164.75;5027642;28;20083;-76
2022/07/27 08:53:11;;;;;;;5.82;3.70;;;;;;;25.14;57.51;96171.94;5050999;28;20025;-77
2022/07/27 08:55:39;;;;;;;6.50;2.92;;;;;;;25.81;57.97;96169.91;5027201;28;21256;-75
2022/07/27 08:58:06;;;;;;;8.27;3.22;;;;;;;25.29;61.76;96168.59;5056047;28;20025;-75
2022/07/27 09:00:33;;;;;;;6.57;3.33;;;;;;;26.13;54.39;96174.44;5051168;28;20029;-76
2022/07/27 09:02:59;;;;;;;7.82;3.70;;;;;;;25.90;54.94;96172.94;5049026;28;20040;-75
2022/07/27 09:05:25;;;;;;;5.53;3.33;;;;;;;25.68;55.47;96167.59;5054802;28;20028;-76
2022/07/27 09:07:51;;;;;;;10.15;3.58;;;;;;;25.55;53.54;96175.06;5047686;28;20139;-75
2022/07/27 09:10:34;;;;;;;4.97;3.08;;;;;;;25.75;53.37;96176.28;5030771;28;20116;-76
2022/07/27 09:13:15;;;;;;;;;;;;;;;25.52;55.11;96170.16;5046360;28;20044;-77
2022/07/27 09:15:46;;;;;;;5.93;2.80;;;;;;;25.43;58.81;96169.00;5051967;28;20014;-74
2022/07/27 09:18:19;;;;;;;5.15;3.00;;;;;;;25.32;58.21;96168.09;5057450;28;20036;-77
2022/07/27 09:21:05;;;;;;;7.15;3.50;;;;;;;25.26;57.96;96162.91;5046115;28;20033;-76
2022/07/27 09:23:31;;;;;;;5.00;2.60;;;;;;;25.63;55.48;96161.09;5029236;28;20066;-78
2022/07/27 09:26:16;;;;;;;7.80;2.60;;;;;;;26.05;53.85;96162.25;5046236;28;20024;-76
2022/07/27 09:28:42;;;;;;;5.15;2.97;;;;;;;25.88;54.70;96159.72;5034485;28;20040;-77
2022/07/27 09:31:14;;;;;;;5.85;3.55;;;;;;;26.16;51.70;96163.16;5044228;28;20029;-76
2022/07/27 09:33:47;;;;;;;6.82;3.58;;;;;;;26.93;51.05;96162.47;5040712;28;20041;-76
2022/07/27 09:36:14;;;;;;;7.13;3.50;;;;;;;24.27;58.48;96171.88;5043893;28;20029;-75
2022/07/27 09:39:05;;;;;;;4.75;3.10;;;;;;;25.68;56.27;96162.22;5031793;28;20016;-76
2022/07/27 09:41:52;;;;;;;5.80;2.85;;;;;;;25.39;58.87;96166.00;5031547;28;20135;-75
2022/07/27 09:44:32;;;;;;;6.65;2.88;;;;;;;25.46;60.15;96162.31;5047926;28;20043;-76
2022/07/27 09:46:58;;;;;;;4.38;2.83;;;;;;;25.57;59.06;96170.19;5026808;28;20119;-76
2022/07/27 09:49:32;;;;;;;6.40;3.83;;;;;;;25.51;57.02;96168.53;5034912;28;20037;-76
2022/07/27 09:52:00;;;;;;;4.55;3.03;;;;;;;25.54;58.32;96170.72;5037717;28;20762;-76
2022/07/27 09:54:27;;;;;;;8.30;3.60;;;;;;;25.98;57.85;96165.16;5052154;28;20041;-76
2022/07/27 09:57:01;;;;;;;6.93;2.83;;;;;;;26.74;52.75;96156.75;5033070;28;20048;-76
2022/07/27 09:59:28;;;;;;;5.18;3.30;;;;;;;27.79;46.75;96154.84;5024484;28;20037;-76
2022/07/27 10:01:55;;;;;;;6.55;3.42;;;;;;;27.97;45.70;96162.41;5006310;28;20112;-76
2022/07/27 10:04:22;;;;;;;5.22;2.88;;;;;;;28.94;43.56;96155.94;5043448;28;20025;-76
2022/07/27 10:06:48;;;;;;;6.28;2.90;;;;;;;28.20;44.57;96155.59;5026950;28;20481;-76
2022/07/27 10:09:14;;;;;;;7.07;3.25;;;;;;;28.04;43.75;96162.94;5025127;28;20923;-76
2022/07/27 10:11:40;;;;;;;4.43;2.50;;;;;;;28.11;41.94;96160.75;5027568;28;20175;-76
2022/07/27 10:14:06;;;;;;;5.57;3.05;;;;;;;27.79;42.53;96155.63;5038355;28;20033;-76
2022/07/27 10:16:33;;;;;;;3.80;2.70;;;;;;;28.67;40.03;96155.25;5044774;28;20025;-76
2022/07/27 10:19:05;;;;;;;6.10;2.90;;;;;;;29.14;40.31;96155.84;5036626;28;20536;-76
2022/07/27 10:21:36;;;;;;;3.60;2.60;;;;;;;27.60;42.67;96168.88;5032083;28;20034;-77
2022/07/27 10:24:11;;;;;;;5.05;2.80;;;;;;;28.92;39.69;96160.84;5031706;28;20139;-76
2022/07/27 10:26:40;;;;;;;8.20;2.85;;;;;;;27.86;42.19;96167.00;5052862;28;20796;-75
2022/07/27 10:29:12;;;;;;;5.57;2.50;;;;;;;27.97;43.24;96167.81;5017162;28;20044;-76
2022/07/27 10:31:40;;;;;;;6.57;2.70;;;;;;;28.14;43.30;96164.81;5051039;28;20028;-76
2022/07/27 10:34:13;;;;;;;6.43;2.47;;;;;;;27.79;43.90;96171.84;5027619;28;20379;-76
2022/07/27 10:36:46;;;;;;;;;;;;;;;27.60;44.82;96179.66;5050448;28;20028;-76
2022/07/27 10:39:25;;;;;;;5.35;2.22;;;;;;;27.38;44.12;96181.78;5027529;28;19917;-76
2022/07/27 10:41:51;;;;;;;3.97;2.42;;;;;;;27.74;43.75;96174.53;5028591;28;20032;-76
2022/07/27 10:44:17;;;;;;;3.50;2.30;;;;;;;27.93;42.02;96172.97;5040369;28;20036;-76
2022/07/27 10:46:55;;;;;;;5.63;2.00;;;;;;;28.21;42.27;96170.75;5034875;28;20044;-75
2022/07/27 10:49:23;;;;;;;7.25;2.78;;;;;;;27.50;42.82;96185.06;5053307;28;20032;-76
2022/07/27 10:51:52;;;;;;;7.20;2.45;;;;;;;27.63;43.00;96167.50;5047256;28;20033;-76
2022/07/27 10:54:37;;;;;;;5.13;2.45;;;;;;;29.12;39.94;96166.97;5051592;28;20662;-76
2022/07/27 10:57:06;;;;;;;4.75;2.10;;;;;;;29.67;39.86;96164.22;5019168;28;20025;-76
2022/07/27 10:59:38;;;;;;;4.40;2.40;;;;;;;29.25;39.03;96162.84;5037914;28;20545;-75
2022/07/27 11:02:11;;;;;;;6.43;4.13;;;;;;;28.86;40.44;96166.25;5046559;28;20020;-75
2022/07/27 11:05:03;;;;;;;6.45;2.50;;;;;;;28.81;41.32;96170.91;5058343;28;20455;-75
2022/07/27 11:07:29;;;;;;;5.18;2.30;;;;;;;28.13;40.42;96166.69;5052759;28;20048;-75
2022/07/27 11:09:54;;;;;;;4.45;2.47;;;;;;;28.29;42.05;96172.91;5038843;28;20029;-76
2022/07/27 11:12:26;;;;;;;7.25;4.47;;;;;;;28.05;42.14;96161.84;5055155;28;20402;-75
2022/07/27 11:14:54;;;;;;;4.00;2.40;;;;;;;27.94;41.45;96173.75;5032004;28;20071;-75
2022/07/27 11:17:26;;;;;;;8.35;2.85;;;;;;;27.00;43.92;96176.53;5044249;28;20037;-75
2022/07/27 11:19:53;;;;;;;4.80;2.53;;;;;;;26.36;45.34;96174.06;5054267;28;20033;-75
2022/07/27 11:22:29;;;;;;;2.90;1.80;;;;;;;26.15;45.18;96170.41;5035477;28;20186;-75
2022/07/27 11:24:54;;;;;;;4.20;1.92;;;;;;;25.95;46.64;96164.88;5050230;28;20036;-75
2022/07/27 11:27:20;;;;;;;5.82;1.90;;;;;;;26.22;45.41;96175.56;5057452;28;20028;-75
2022/07/27 11:29:46;;;;;;;2.63;2.08;;;;;;;26.38;45.34;96171.09;5048105;28;20033;-75
2022/07/27 11:32:17;;;;;;;3.70;2.40;;;;;;;26.64;43.95;96172.88;5056459;28;20138;-75